Open Full Screen Window  High Contrast Mode
Wind Gusting 00 knots
08
May 29, 2016 4:30 AM CDT
Weather Information
Wind Direction
  260 °
Wind Speed
  08 kt (9 mph)
Wind Gust
  00 kt (0 mph)
Altimeter
29.96 in
Visibility
10 SM
Temperature
14° C
57° F
Dewpoint
14° C
57° F
Humidity
100%
1hr Rain Fall
00.00 in.
24hr Rain Fall
01.95 in.
Sky Condition
Broken @ 10,000 ft
VFR

METAR KMDS 290930Z AUTO 26008KT 10SM BKN100 14/14 A2996 RMK AO2

*Background is not an actual portrayal of the airport.